createdAt,value
2023-02-16T00:02:10.716Z,11.10
2023-02-16T00:04:37.627Z,10.93
2023-02-16T00:07:04.693Z,11.43
2023-02-16T00:09:31.537Z,10.97
2023-02-16T00:12:17.586Z,11.17
2023-02-16T00:14:44.599Z,11.23
2023-02-16T00:17:11.954Z,11.23
2023-02-16T00:19:42.846Z,10.60
2023-02-16T00:22:11.262Z,10.73
2023-02-16T00:24:38.155Z,11.27
2023-02-16T00:27:12.954Z,10.97
2023-02-16T00:29:39.966Z,11.30
2023-02-16T00:32:12.556Z,10.90
2023-02-16T00:34:43.289Z,11.07
2023-02-16T00:37:13.398Z,11.13
2023-02-16T00:39:42.613Z,11.17
2023-02-16T00:42:19.914Z,10.93
2023-02-16T00:44:53.152Z,10.80
2023-02-16T00:47:43.126Z,11.27
2023-02-16T00:50:24.425Z,11.63
2023-02-16T00:52:51.753Z,11.40
2023-02-16T00:55:23.364Z,11.53
2023-02-16T00:58:16.123Z,11.70
2023-02-16T01:00:47.614Z,11.40
2023-02-16T01:03:18.613Z,11.20
2023-02-16T01:05:45.962Z,11.30
2023-02-16T01:08:36.114Z,11.20
2023-02-16T01:11:07.820Z,11.37
2023-02-16T01:13:45.507Z,11.40
2023-02-16T01:16:36.356Z,11.40
2023-02-16T01:19:04.082Z,11.37
2023-02-16T01:21:30.958Z,11.00
2023-02-16T01:24:01.141Z,11.30
2023-02-16T01:26:29.111Z,11.40
2023-02-16T01:28:56.036Z,11.40
2023-02-16T01:31:23.236Z,11.40
2023-02-16T01:33:50.917Z,11.60
2023-02-16T01:36:34.385Z,11.23
2023-02-16T01:39:01.765Z,11.53
2023-02-16T01:41:50.913Z,11.60
2023-02-16T01:44:21.734Z,11.43
2023-02-16T01:47:17.770Z,11.40
2023-02-16T01:49:44.726Z,11.60
2023-02-16T01:52:15.650Z,11.80
2023-02-16T01:55:07.483Z,11.20
2023-02-16T01:58:19.438Z,11.50
2023-02-16T02:00:49.618Z,11.47
2023-02-16T02:03:42.103Z,12.93
2023-02-16T02:06:12.679Z,11.20
2023-02-16T02:09:07.673Z,11.10
2023-02-16T02:11:47.065Z,11.00
2023-02-16T02:14:30.511Z,11.60
2023-02-16T02:17:05.444Z,11.50
2023-02-16T02:19:56.181Z,11.10
2023-02-16T02:23:08.175Z,10.93
2023-02-16T02:25:44.245Z,11.33
2023-02-16T02:28:46.217Z,11.07
2023-02-16T02:31:25.283Z,11.20
2023-02-16T02:34:04.320Z,11.30
2023-02-16T02:36:43.742Z,11.30
2023-02-16T02:39:32.649Z,11.30
2023-02-16T02:42:36.938Z,11.10
2023-02-16T02:45:16.928Z,11.40
2023-02-16T02:47:46.243Z,10.93
2023-02-16T02:50:32.369Z,10.97
2023-02-16T02:53:03.777Z,11.03
2023-02-16T02:55:51.613Z,10.80
2023-02-16T02:58:40.997Z,11.20
2023-02-16T03:01:09.455Z,11.07
2023-02-16T03:03:43.740Z,11.37
2023-02-16T03:06:36.591Z,11.03
2023-02-16T03:09:11.644Z,11.10
2023-02-16T03:11:57.454Z,11.00
2023-02-16T03:14:43.740Z,11.07
2023-02-16T03:17:36.000Z,11.00
2023-02-16T03:20:27.439Z,11.20
2023-02-16T03:23:15.091Z,10.87
2023-02-16T03:26:01.116Z,10.93
2023-02-16T03:28:50.184Z,10.63
2023-02-16T03:31:22.188Z,11.20
2023-02-16T03:33:54.743Z,10.80
2023-02-16T03:36:24.744Z,11.10
2023-02-16T03:38:53.031Z,10.63
2023-02-16T03:41:20.118Z,11.10
2023-02-16T03:43:47.105Z,11.10
2023-02-16T03:46:14.367Z,11.20
2023-02-16T03:48:41.453Z,11.70
2023-02-16T03:51:08.768Z,11.47
2023-02-16T03:53:35.636Z,11.50
2023-02-16T03:56:02.670Z,10.87
2023-02-16T03:58:29.708Z,10.97
2023-02-16T04:00:59.027Z,11.00
2023-02-16T04:03:27.087Z,11.00
2023-02-16T04:05:54.062Z,10.87
2023-02-16T04:08:20.886Z,11.30
2023-02-16T04:10:48.228Z,11.03
2023-02-16T04:13:15.075Z,11.10
2023-02-16T04:15:42.414Z,10.93
2023-02-16T04:18:09.550Z,11.20
2023-02-16T04:20:36.809Z,11.30
2023-02-16T04:23:04.204Z,11.10
2023-02-16T04:25:31.374Z,10.97
2023-02-16T04:27:58.666Z,11.50
2023-02-16T04:30:29.193Z,11.23
2023-02-16T04:32:57.102Z,10.90
2023-02-16T04:35:23.952Z,11.33
2023-02-16T04:37:50.943Z,11.10
2023-02-16T04:40:18.508Z,10.80
2023-02-16T04:42:46.009Z,10.97
2023-02-16T04:45:13.527Z,11.17
2023-02-16T04:47:40.772Z,11.13
2023-02-16T04:50:08.564Z,11.13
2023-02-16T04:52:37.733Z,11.30
2023-02-16T04:55:06.334Z,11.80
2023-02-16T04:57:33.569Z,11.30
2023-02-16T05:00:00.580Z,11.07
2023-02-16T05:02:27.537Z,11.30
2023-02-16T05:04:54.570Z,11.33
2023-02-16T05:07:21.576Z,11.50
2023-02-16T05:09:48.426Z,11.70
2023-02-16T05:12:33.825Z,11.87
2023-02-16T05:15:00.875Z,11.63
2023-02-16T05:17:27.936Z,12.00
2023-02-16T05:19:58.090Z,11.70
2023-02-16T05:22:25.668Z,11.83
2023-02-16T05:24:52.905Z,11.83
2023-02-16T05:27:23.382Z,11.90
2023-02-16T05:29:50.628Z,12.10
2023-02-16T05:32:18.052Z,11.70
2023-02-16T05:34:45.660Z,11.70
2023-02-16T05:37:17.576Z,11.60
2023-02-16T05:39:44.776Z,11.27
2023-02-16T05:42:11.819Z,11.67
2023-02-16T05:44:39.025Z,11.60
2023-02-16T05:47:05.952Z,11.60
2023-02-16T05:49:32.969Z,11.87
2023-02-16T05:52:00.005Z,12.00
2023-02-16T05:54:28.100Z,11.50
2023-02-16T05:56:55.089Z,12.07
2023-02-16T05:59:22.685Z,12.50
2023-02-16T06:01:52.190Z,12.20
2023-02-16T06:04:20.853Z,11.97
2023-02-16T06:06:48.623Z,12.20
2023-02-16T06:09:16.306Z,12.33
2023-02-16T06:11:44.777Z,12.23
2023-02-16T06:14:17.645Z,11.97
2023-02-16T06:16:47.485Z,12.53
2023-02-16T06:19:15.849Z,12.63
2023-02-16T06:21:43.868Z,12.83
2023-02-16T06:24:12.781Z,12.37
2023-02-16T06:26:40.022Z,12.40
2023-02-16T06:29:07.491Z,12.40
2023-02-16T06:31:36.401Z,12.80
2023-02-16T06:34:04.430Z,12.70
2023-02-16T06:36:31.677Z,12.40
2023-02-16T06:38:58.697Z,12.40
2023-02-16T06:41:32.222Z,12.53
2023-02-16T06:44:03.859Z,11.80
2023-02-16T06:46:31.274Z,12.10
2023-02-16T06:48:59.069Z,12.00
2023-02-16T06:51:26.416Z,12.27
2023-02-16T06:53:53.612Z,12.43
2023-02-16T06:56:20.974Z,11.97
2023-02-16T06:58:48.017Z,12.27
2023-02-16T07:01:15.100Z,11.60
2023-02-16T07:03:42.046Z,11.90
2023-02-16T07:06:09.234Z,12.30
2023-02-16T07:08:36.296Z,11.87
2023-02-16T07:11:03.789Z,12.10
2023-02-16T07:13:30.978Z,12.50
2023-02-16T07:15:58.096Z,12.37
2023-02-16T07:18:25.103Z,12.10
2023-02-16T07:20:52.049Z,11.90
2023-02-16T07:23:18.886Z,12.20
2023-02-16T07:25:45.945Z,12.57
2023-02-16T07:28:13.223Z,12.70
2023-02-16T07:30:40.538Z,12.80
2023-02-16T07:33:07.932Z,12.60
2023-02-16T07:35:36.123Z,12.57
2023-02-16T07:38:04.006Z,12.60
2023-02-16T07:40:31.194Z,12.37
2023-02-16T07:43:02.090Z,12.07
2023-02-16T07:45:29.422Z,12.10
2023-02-16T07:47:56.481Z,12.07
2023-02-16T07:50:23.582Z,12.27
2023-02-16T07:52:50.518Z,11.60
2023-02-16T07:55:17.817Z,12.00
2023-02-16T07:57:44.721Z,11.53
2023-02-16T08:00:12.082Z,11.93
2023-02-16T08:02:41.069Z,11.60
2023-02-16T08:05:08.265Z,11.60
2023-02-16T08:07:35.321Z,11.47
2023-02-16T08:10:02.734Z,11.17
2023-02-16T08:12:29.659Z,11.10
2023-02-16T08:14:56.617Z,10.87
2023-02-16T08:17:23.513Z,11.10
2023-02-16T08:19:51.106Z,11.00
2023-02-16T08:22:18.303Z,11.13
2023-02-16T08:24:45.433Z,11.63
2023-02-16T08:27:12.864Z,11.17
2023-02-16T08:29:41.621Z,11.20
2023-02-16T08:32:14.921Z,11.20
2023-02-16T08:34:43.492Z,11.20
2023-02-16T08:37:13.049Z,11.07
2023-02-16T08:39:40.953Z,11.50
2023-02-16T08:42:08.581Z,11.10
2023-02-16T08:44:36.050Z,10.93
2023-02-16T08:47:04.458Z,11.33
2023-02-16T08:49:31.964Z,11.23
2023-02-16T08:52:01.530Z,11.40
2023-02-16T08:54:31.194Z,11.17
2023-02-16T08:56:59.141Z,11.00
2023-02-16T08:59:28.913Z,11.03
2023-02-16T09:01:58.434Z,10.80
2023-02-16T09:04:27.670Z,11.03
2023-02-16T09:06:56.337Z,10.30
2023-02-16T09:09:23.686Z,10.90
2023-02-16T09:11:50.635Z,10.57
2023-02-16T09:14:18.770Z,11.40
2023-02-16T09:16:46.570Z,11.07
2023-02-16T09:19:19.169Z,10.80
2023-02-16T09:21:47.342Z,10.30
2023-02-16T09:24:16.100Z,10.97
2023-02-16T09:26:44.766Z,10.60
2023-02-16T09:29:12.806Z,10.33
2023-02-16T09:31:41.411Z,11.30
2023-02-16T09:34:13.992Z,10.33
2023-02-16T09:36:41.600Z,10.30
2023-02-16T09:39:08.540Z,11.00
2023-02-16T09:41:41.570Z,11.00
2023-02-16T09:44:33.710Z,10.80
2023-02-16T09:47:05.002Z,10.53
2023-02-16T09:49:45.214Z,11.10
2023-02-16T09:52:26.343Z,10.90
2023-02-16T09:54:54.469Z,10.47
2023-02-16T09:57:42.045Z,10.83
2023-02-16T10:00:36.063Z,10.70
2023-02-16T10:03:10.608Z,10.80
2023-02-16T10:06:01.405Z,10.80
2023-02-16T10:08:53.276Z,11.17
2023-02-16T10:11:38.729Z,10.70
2023-02-16T10:14:13.541Z,10.23
2023-02-16T10:16:51.947Z,10.43
2023-02-16T10:19:27.684Z,10.47
2023-02-16T10:21:59.296Z,10.70
2023-02-16T10:24:30.359Z,10.90
2023-02-16T10:27:07.629Z,11.17
2023-02-16T10:29:34.931Z,10.90
2023-02-16T10:32:13.008Z,11.20
2023-02-16T10:34:59.181Z,11.13
2023-02-16T10:37:29.771Z,11.23
2023-02-16T10:40:34.593Z,11.27
2023-02-16T10:43:43.827Z,10.83
2023-02-16T10:46:14.566Z,11.10
2023-02-16T10:48:41.528Z,11.33
2023-02-16T10:51:13.018Z,11.00
2023-02-16T10:53:56.855Z,11.50
2023-02-16T10:56:23.806Z,11.53
2023-02-16T10:58:51.695Z,11.20
2023-02-16T11:01:19.559Z,11.07
2023-02-16T11:03:50.313Z,11.30
2023-02-16T11:06:25.675Z,10.63
2023-02-16T11:08:57.263Z,11.33
2023-02-16T11:11:26.367Z,11.33
2023-02-16T11:14:06.871Z,11.07
2023-02-16T11:16:35.559Z,11.33
2023-02-16T11:19:25.212Z,11.23
2023-02-16T11:21:58.897Z,11.00
2023-02-16T11:24:32.184Z,11.27
2023-02-16T11:27:02.335Z,11.37
2023-02-16T11:29:29.873Z,11.60
2023-02-16T11:31:58.053Z,11.33
2023-02-16T11:34:39.622Z,11.37
2023-02-16T11:37:12.725Z,11.40
2023-02-16T11:39:47.097Z,11.57
2023-02-16T11:42:31.545Z,10.97
2023-02-16T11:45:00.582Z,10.70
2023-02-16T11:47:42.083Z,11.33
2023-02-16T11:50:31.649Z,11.30
2023-02-16T11:53:15.413Z,11.00
2023-02-16T11:55:50.306Z,11.57
2023-02-16T11:58:27.897Z,11.27
2023-02-16T12:01:17.228Z,11.10
2023-02-16T12:04:09.122Z,11.03
2023-02-16T12:07:23.260Z,10.87
2023-02-16T12:10:02.023Z,11.10
2023-02-16T12:12:48.279Z,10.30
2023-02-16T12:15:15.284Z,11.00
2023-02-16T12:18:09.203Z,10.70
2023-02-16T12:21:09.541Z,10.80
2023-02-16T12:23:43.644Z,10.90
2023-02-16T12:26:34.228Z,10.63
2023-02-16T12:29:13.232Z,11.00
2023-02-16T12:32:04.913Z,10.97
2023-02-16T12:34:48.733Z,11.27
2023-02-16T12:37:24.957Z,10.70
2023-02-16T12:40:01.424Z,11.17
2023-02-16T12:43:01.285Z,10.90
2023-02-16T12:45:33.116Z,11.10
2023-02-16T12:48:09.094Z,10.77
2023-02-16T12:50:37.049Z,10.63
2023-02-16T12:53:10.552Z,10.77
2023-02-16T12:56:00.527Z,10.87
2023-02-16T12:58:40.391Z,11.00
2023-02-16T13:01:16.328Z,10.67
2023-02-16T13:03:54.087Z,11.00
2023-02-16T13:06:31.124Z,10.80
2023-02-16T13:09:25.305Z,11.27
2023-02-16T13:12:02.577Z,11.40
2023-02-16T13:14:35.050Z,11.63
2023-02-16T13:17:09.166Z,11.17
2023-02-16T13:19:36.494Z,10.87
2023-02-16T13:22:28.661Z,11.33
2023-02-16T13:24:55.766Z,10.70
2023-02-16T13:27:54.690Z,10.83
2023-02-16T13:30:42.940Z,10.30
2023-02-16T13:33:27.668Z,10.97
2023-02-16T13:36:10.742Z,11.07
2023-02-16T13:39:02.121Z,10.87
2023-02-16T13:42:33.983Z,10.97
2023-02-16T13:45:04.666Z,10.77
2023-02-16T13:47:39.539Z,10.50
2023-02-16T13:50:28.259Z,11.17
2023-02-16T13:52:57.756Z,11.00
2023-02-16T13:55:37.692Z,11.17
2023-02-16T13:58:12.364Z,11.10
2023-02-16T14:00:42.473Z,11.30
2023-02-16T14:03:21.396Z,11.43
2023-02-16T14:05:53.150Z,11.93
2023-02-16T14:08:24.546Z,11.30
2023-02-16T14:10:53.302Z,10.70
2023-02-16T14:13:36.819Z,11.30
2023-02-16T14:16:29.174Z,11.33
2023-02-16T14:19:19.545Z,11.70
2023-02-16T14:21:48.876Z,11.17
2023-02-16T14:24:35.924Z,11.10
2023-02-16T14:27:06.406Z,10.57
2023-02-16T14:29:59.379Z,10.70
2023-02-16T14:32:38.744Z,10.60
2023-02-16T14:35:30.021Z,10.83
2023-02-16T14:38:02.770Z,11.30
2023-02-16T14:40:36.128Z,11.17
2023-02-16T14:43:15.557Z,11.10
2023-02-16T14:46:07.497Z,10.43
2023-02-16T14:48:50.325Z,10.93
2023-02-16T14:51:40.479Z,11.13
2023-02-16T14:54:31.190Z,10.93
2023-02-16T14:57:17.985Z,11.00
2023-02-16T15:00:23.830Z,11.23
2023-02-16T15:02:57.204Z,10.70
2023-02-16T15:05:29.790Z,11.00
2023-02-16T15:08:35.321Z,11.27
2023-02-16T15:11:28.194Z,11.20
2023-02-16T15:13:55.601Z,10.87
2023-02-16T15:16:23.360Z,10.97
2023-02-16T15:18:53.490Z,10.90
2023-02-16T15:21:30.906Z,10.23
2023-02-16T15:24:00.469Z,10.70
2023-02-16T15:26:33.564Z,11.23
2023-02-16T15:29:22.472Z,10.73
2023-02-16T15:31:49.867Z,10.43
2023-02-16T15:34:28.924Z,10.57
2023-02-16T15:36:57.293Z,10.10
2023-02-16T15:39:43.690Z,10.87
2023-02-16T15:42:23.886Z,10.90
2023-02-16T15:44:51.160Z,10.83
2023-02-16T15:47:26.271Z,10.83
2023-02-16T15:49:54.366Z,10.57
2023-02-16T15:52:32.937Z,10.80
2023-02-16T15:55:02.301Z,10.93
2023-02-16T15:57:36.188Z,10.50
2023-02-16T16:00:08.678Z,10.40
2023-02-16T16:02:49.636Z,10.93
2023-02-16T16:05:37.417Z,10.40
2023-02-16T16:08:06.151Z,10.40
2023-02-16T16:10:36.981Z,10.50
2023-02-16T16:13:07.412Z,10.80
2023-02-16T16:15:40.406Z,10.13
2023-02-16T16:18:47.068Z,10.30
2023-02-16T16:21:19.014Z,10.27
2023-02-16T16:24:00.524Z,10.90
2023-02-16T16:26:29.564Z,10.80
2023-02-16T16:28:57.044Z,10.77
2023-02-16T16:31:24.157Z,10.40
2023-02-16T16:33:56.870Z,10.57
2023-02-16T16:36:57.637Z,10.60
2023-02-16T16:39:30.000Z,10.67
2023-02-16T16:41:57.176Z,10.47
2023-02-16T16:44:41.323Z,10.50
2023-02-16T16:47:33.665Z,10.03
2023-02-16T16:50:02.689Z,11.17
2023-02-16T16:52:43.599Z,10.83
2023-02-16T16:55:19.875Z,10.40
2023-02-16T16:57:48.677Z,11.00
2023-02-16T17:00:16.833Z,10.60
2023-02-16T17:02:44.108Z,10.60
2023-02-16T17:05:11.285Z,10.93
2023-02-16T17:07:38.757Z,11.20
2023-02-16T17:10:06.361Z,11.90
2023-02-16T17:12:33.856Z,11.83
2023-02-16T17:15:02.555Z,11.27
2023-02-16T17:17:31.214Z,11.80
2023-02-16T17:19:58.187Z,11.63
2023-02-16T17:22:25.213Z,11.67
2023-02-16T17:24:52.829Z,12.10
2023-02-16T17:27:19.979Z,11.37
2023-02-16T17:29:46.955Z,12.27
2023-02-16T17:32:14.328Z,12.30
2023-02-16T17:34:41.243Z,12.07
2023-02-16T17:37:08.172Z,11.50
2023-02-16T17:39:35.937Z,11.47
2023-02-16T17:42:03.611Z,11.50
2023-02-16T17:44:30.556Z,11.70
2023-02-16T17:46:58.269Z,12.13
2023-02-16T17:49:25.468Z,12.10
2023-02-16T17:51:52.876Z,11.80
2023-02-16T17:54:19.750Z,11.73
2023-02-16T17:56:47.509Z,12.00
2023-02-16T17:59:15.558Z,11.83
2023-02-16T18:01:45.642Z,11.83
2023-02-16T18:04:12.792Z,11.47
2023-02-16T18:06:40.109Z,11.30
2023-02-16T18:09:07.937Z,11.70
2023-02-16T18:11:34.832Z,12.13
2023-02-16T18:14:01.974Z,11.97
2023-02-16T18:16:28.883Z,11.93
2023-02-16T18:18:57.471Z,11.73
2023-02-16T18:21:24.707Z,11.70
2023-02-16T18:23:51.650Z,11.97
2023-02-16T18:26:18.749Z,12.30
2023-02-16T18:28:46.000Z,19.37
2023-02-16T18:31:14.644Z,11.60
2023-02-16T18:33:41.767Z,12.30
2023-02-16T18:36:09.157Z,12.57
2023-02-16T18:38:36.582Z,11.97
2023-02-16T18:41:03.748Z,12.20
2023-02-16T18:43:31.376Z,12.07
2023-02-16T18:45:58.319Z,12.13
2023-02-16T18:48:25.403Z,12.90
2023-02-16T18:50:52.293Z,12.20
2023-02-16T18:53:19.401Z,11.73
2023-02-16T18:55:46.294Z,11.83
2023-02-16T18:58:14.781Z,11.90
2023-02-16T19:00:45.857Z,12.10
2023-02-16T19:03:13.072Z,12.00
2023-02-16T19:05:40.032Z,11.67
2023-02-16T19:08:07.133Z,12.13
2023-02-16T19:10:34.239Z,12.00
2023-02-16T19:13:02.260Z,11.80
2023-02-16T19:15:29.408Z,12.17
2023-02-16T19:17:56.617Z,11.83
2023-02-16T19:20:23.473Z,12.07
2023-02-16T19:22:50.776Z,12.30
2023-02-16T19:25:17.953Z,12.10
2023-02-16T19:27:45.102Z,12.20
2023-02-16T19:30:12.702Z,11.73
2023-02-16T19:32:41.306Z,10.93
2023-02-16T19:35:09.438Z,11.40
2023-02-16T19:37:36.625Z,11.07
2023-02-16T19:40:06.868Z,10.90
2023-02-16T19:42:34.108Z,10.80
2023-02-16T19:45:01.012Z,10.57
2023-02-16T19:47:28.022Z,10.80
2023-02-16T19:49:55.001Z,10.27
2023-02-16T19:52:21.994Z,10.20
2023-02-16T19:54:49.568Z,11.20
2023-02-16T19:57:16.598Z,10.97
2023-02-16T19:59:43.439Z,11.03
2023-02-16T20:02:12.387Z,10.60
2023-02-16T20:04:39.442Z,11.07
2023-02-16T20:07:08.373Z,11.20
2023-02-16T20:09:37.357Z,10.57
2023-02-16T20:12:05.559Z,10.63
2023-02-16T20:14:32.396Z,10.67
2023-02-16T20:16:59.378Z,10.70
2023-02-16T20:19:26.273Z,11.10
2023-02-16T20:21:53.291Z,9.80
2023-02-16T20:24:20.592Z,10.30
2023-02-16T20:26:49.312Z,10.20
2023-02-16T20:29:20.898Z,10.03
2023-02-16T20:31:55.469Z,10.30
2023-02-16T20:34:26.089Z,10.30
2023-02-16T20:36:54.216Z,10.10
2023-02-16T20:39:22.451Z,10.43
2023-02-16T20:41:50.558Z,10.67
2023-02-16T20:44:18.482Z,10.73
2023-02-16T20:46:46.088Z,11.10
2023-02-16T20:49:14.160Z,11.27
2023-02-16T20:51:41.879Z,11.30
2023-02-16T20:54:09.936Z,11.30
2023-02-16T20:56:38.132Z,11.57
2023-02-16T20:59:05.882Z,11.60
2023-02-16T21:01:40.545Z,11.13
2023-02-16T21:04:08.785Z,11.40
2023-02-16T21:06:37.003Z,11.33
2023-02-16T21:09:07.676Z,11.30
2023-02-16T21:11:36.179Z,11.50
2023-02-16T21:14:04.320Z,11.60
2023-02-16T21:16:31.593Z,11.23
2023-02-16T21:18:58.650Z,11.43
2023-02-16T21:21:26.019Z,10.70
2023-02-16T21:23:54.689Z,11.27
2023-02-16T21:26:24.310Z,11.13
2023-02-16T21:28:51.318Z,11.10
2023-02-16T21:31:22.871Z,11.30
2023-02-16T21:33:50.228Z,11.17
2023-02-16T21:36:23.170Z,10.83
2023-02-16T21:38:50.377Z,10.80
2023-02-16T21:41:26.390Z,10.80
2023-02-16T21:43:55.114Z,11.37
2023-02-16T21:46:23.492Z,12.00
2023-02-16T21:48:51.280Z,11.50
2023-02-16T21:51:20.807Z,11.53
2023-02-16T21:53:48.612Z,11.13
2023-02-16T21:56:22.156Z,11.50
2023-02-16T21:58:49.441Z,11.30
2023-02-16T22:01:21.844Z,10.93
2023-02-16T22:03:49.101Z,10.80
2023-02-16T22:06:15.995Z,10.83
2023-02-16T22:08:43.029Z,11.20
2023-02-16T22:11:13.108Z,11.40
2023-02-16T22:13:41.020Z,11.10
2023-02-16T22:16:13.010Z,11.33
2023-02-16T22:18:40.694Z,11.57
2023-02-16T22:21:08.095Z,11.70
2023-02-16T22:23:36.645Z,10.50
2023-02-16T22:26:06.332Z,10.83
2023-02-16T22:28:34.118Z,11.03
2023-02-16T22:31:07.281Z,10.60
2023-02-16T22:33:34.543Z,10.90
2023-02-16T22:36:11.857Z,11.50
2023-02-16T22:38:38.992Z,10.80
2023-02-16T22:41:07.896Z,10.87
2023-02-16T22:43:35.406Z,10.60
2023-02-16T22:46:11.238Z,11.00
2023-02-16T22:48:38.704Z,10.87
2023-02-16T22:51:07.898Z,10.60
2023-02-16T22:53:35.413Z,11.17
2023-02-16T22:56:06.416Z,11.00
2023-02-16T22:58:34.027Z,11.10
2023-02-16T23:01:01.031Z,10.97
2023-02-16T23:03:29.024Z,11.27
2023-02-16T23:05:55.991Z,11.17
2023-02-16T23:08:23.590Z,10.80
2023-02-16T23:11:02.653Z,11.43
2023-02-16T23:13:32.118Z,11.20
2023-02-16T23:16:05.748Z,10.90
2023-02-16T23:18:33.216Z,11.30
2023-02-16T23:21:15.235Z,11.10
2023-02-16T23:23:42.666Z,11.57
2023-02-16T23:26:09.613Z,11.40
2023-02-16T23:28:39.067Z,11.37
2023-02-16T23:31:06.412Z,11.17
2023-02-16T23:33:34.243Z,11.13
2023-02-16T23:36:01.495Z,11.23
2023-02-16T23:38:28.449Z,10.70
2023-02-16T23:41:07.908Z,11.00
2023-02-16T23:43:35.456Z,10.70
2023-02-16T23:46:03.089Z,10.87
2023-02-16T23:48:30.849Z,10.77
2023-02-16T23:50:58.210Z,10.60
2023-02-16T23:53:26.626Z,10.63
2023-02-16T23:56:07.458Z,10.90
2023-02-16T23:58:41.372Z,11.20
